66NY weather

Maple Ridge Airport
Medina, New York, United States

Public forecast

Using degrees Fahrenheit for public forecast. Weather courtesy of forecast.io.

Closest aviation weather report (METAR) to Maple Ridge Airport

Closest report is Buffalo Niagara International Airport, 22.9 nm (42.4 km) SW. Retrieved 2020/05/30 00:54 UTC (22 minutes ago):

KBUF 300054Z 27009G17KT 7SM OVC005 14/14 A2986 RMK AO2 PRESRR SLP111 T01390139

Closest aviation forecast (TAF) to Maple Ridge Airport

Closest forecast is Buffalo Niagara International Airport, 22.9 nm (42.4 km) SW. Retrieved 2020-05-30 00:33 UTC (43 minutes ago):

TAF KBUF 292331Z 3000/3024 23018G23KT P6SM OVC006 FM300200 24012KT P6SM OVC020 FM300400 26011KT P6SM OVC035 FM300900 24007KT P6SM BKN080 FM301200 23008KT P6SM BKN025 FM301500 24012G19KT P6SM VCSH BKN035 FM302200 28011G18KT P6SM SCT050